Terminal Aerodrome Forecast
Issued by NWS

Home | Current Version | Previous Version | Text Only | Print | Product List | Glossary On
Versions: 1 2 3 4 5 6 7 8 9 10 11 12 13 14 15 16 17 18 19 20 21 22
000
FTUS45 KBOU 160226 AAB
TAFAPA
TAF AMD
KAPA 160226Z 1602/1624 34003KT 6SM -SN SCT015 OVC025
     FM160500 33004KT 5SM -SN BR BKN014 OVC025
      TEMPO 1605/1609 2SM -SN BR BKN007
     FM160900 36010KT 3SM -SN BR OVC012
      TEMPO 1609/1613 3/4SM -SN BR BKN004
     FM161300 35012KT P6SM VCSH SCT010 OVC020
     FM162100 33010KT P6SM FEW035 SCT070 BKN120=

USA.gov is the U.S. government's official web portal to all federal, state and local government web resources and services.